Time;durP1;ratioP1;P1;durP2;ratioP2;P2;SDS_P1;SDS_P2;PMS_P1;PMS_P2;Temp;Humidity;BMP_temperature;BMP_pressure;BME280_temperature;BME280_humidity;BME280_pressure;Samples;Min_cycle;Max_cycle;Signal;HPM_P1;HPM_P2
2023/04/06 00:01:51;;;;;;;19.95;13.23;;;4.70;63.40;;;;;;5080451;28;20325;-62
2023/04/06 00:04:21;;;;;;;28.10;15.95;;;4.60;63.30;;;;;;5082108;28;20203;-63
2023/04/06 00:06:52;;;;;;;31.35;16.40;;;4.50;63.30;;;;;;5083566;28;20286;-62
2023/04/06 00:09:38;;;;;;;28.98;16.63;;;4.50;63.40;;;;;;5078708;28;20224;-63
2023/04/06 00:12:11;;;;;;;25.58;14.98;;;4.50;63.40;;;;;;5078114;28;20219;-62
2023/04/06 00:15:01;;;;;;;26.40;16.45;;;4.50;63.50;;;;;;5079519;28;20219;-62
2023/04/06 00:17:36;;;;;;;26.17;16.40;;;4.50;63.60;;;;;;5084056;28;20300;-63
2023/04/06 00:20:16;;;;;;;26.15;14.25;;;4.40;63.40;;;;;;5078925;28;20952;-62
2023/04/06 00:22:57;;;;;;;18.15;12.35;;;4.40;63.50;;;;;;5078585;28;20267;-62
2023/04/06 00:25:30;;;;;;;22.25;12.85;;;4.40;63.60;;;;;;5082202;28;20778;-62
2023/04/06 00:28:15;;;;;;;25.27;13.15;;;4.30;63.70;;;;;;5081001;28;20212;-63
2023/04/06 00:30:56;;;;;;;23.70;13.35;;;4.40;63.70;;;;;;5065991;28;20283;-62
2023/04/06 00:33:29;;;;;;;22.65;13.60;;;4.40;63.70;;;;;;5080691;28;20210;-62
2023/04/06 00:35:59;;;;;;;23.90;13.57;;;4.30;63.60;;;;;;5061285;28;20206;-62
2023/04/06 00:38:37;;;;;;;17.45;10.93;;;4.30;63.60;;;;;;5080182;28;20210;-62
2023/04/06 00:43:57;;;;;;;20.50;13.23;;;4.30;63.80;;;;;;5083979;28;20938;-63
2023/04/06 00:46:30;;;;;;;18.70;12.20;;;4.20;63.80;;;;;;5084280;28;20202;-63
2023/04/06 00:49:03;;;;;;;24.13;13.20;;;4.20;63.80;;;;;;5067411;28;20309;-62
2023/04/06 00:51:48;;;;;;;22.58;12.70;;;4.20;63.90;;;;;;5064476;28;20229;-63
2023/04/06 00:54:25;;;;;;;20.73;12.25;;;4.20;63.90;;;;;;5079724;28;20818;-63
2023/04/06 00:57:06;;;;;;;17.40;12.27;;;4.10;64.00;;;;;;5053755;28;20254;-62
2023/04/06 00:59:37;;;;;;;18.52;11.90;;;4.10;64.00;;;;;;5085002;28;20202;-63
2023/04/06 01:02:16;;;;;;;23.88;13.88;;;4.00;64.10;;;;;;5075541;28;20292;-63
2023/04/06 01:04:56;;;;;;;24.90;13.60;;;4.00;64.20;;;;;;5062368;28;20912;-63
2023/04/06 01:07:42;;;;;;;20.70;13.43;;;4.00;64.20;;;;;;5067516;28;20612;-62
2023/04/06 01:10:32;;;;;;;18.40;11.70;;;4.00;64.30;;;;;;5082965;28;20214;-63
2023/04/06 01:13:08;;;;;;;20.58;11.98;;;3.90;64.30;;;;;;5085837;28;20260;-62
2023/04/06 01:16:06;;;;;;;16.85;11.80;;;3.90;64.30;;;;;;5064824;28;20210;-63
2023/04/06 01:18:56;;;;;;;17.45;12.00;;;3.90;64.50;;;;;;5085884;28;20276;-63
2023/04/06 01:21:40;;;;;;;16.35;11.38;;;4.00;64.50;;;;;;5078855;28;20195;-63
2023/04/06 01:24:34;;;;;;;17.08;11.57;;;4.00;64.60;;;;;;5079208;28;20226;-63
2023/04/06 01:27:21;;;;;;;20.15;13.00;;;4.00;64.50;;;;;;5063633;28;20276;-63
2023/04/06 01:30:01;;;;;;;24.70;12.60;;;4.00;64.50;;;;;;5078206;28;20231;-63
2023/04/06 01:32:57;;;;;;;22.17;12.43;;;4.00;64.40;;;;;;5057846;28;20234;-63
2023/04/06 01:35:46;;;;;;;24.55;13.68;;;4.00;64.30;;;;;;5061073;28;20311;-63
2023/04/06 01:38:41;;;;;;;18.50;11.27;;;3.90;64.30;;;;;;5081572;28;20214;-62
2023/04/06 01:41:17;;;;;;;26.58;15.35;;;3.80;64.30;;;;;;5062258;28;20273;-62
2023/04/06 01:43:54;;;;;;;27.25;15.88;;;3.70;64.40;;;;;;5086237;28;20213;-62
2023/04/06 01:46:32;;;;;;;20.60;12.57;;;3.70;64.40;;;;;;5081485;28;20206;-62
2023/04/06 01:49:13;;;;;;;18.77;11.60;;;3.60;64.40;;;;;;5080745;28;20209;-62
2023/04/06 01:51:54;;;;;;;16.67;11.57;;;3.60;64.70;;;;;;5082321;28;20222;-62
2023/04/06 01:54:28;;;;;;;30.50;16.58;;;3.60;64.80;;;;;;5059966;28;20545;-62
2023/04/06 01:57:20;;;;;;;21.40;13.20;;;3.60;64.80;;;;;;5087287;28;20541;-62
2023/04/06 02:02:54;;;;;;;18.50;11.82;;;3.60;64.90;;;;;;5061860;28;20584;-63
2023/04/06 02:05:30;;;;;;;20.45;12.73;;;3.60;64.80;;;;;;5080500;28;20202;-63
2023/04/06 02:08:02;;;;;;;21.95;12.60;;;3.50;64.90;;;;;;5065550;28;20210;-63
2023/04/06 02:10:44;;;;;;;21.58;11.75;;;3.50;64.90;;;;;;5084891;28;20312;-63
2023/04/06 02:13:34;;;;;;;16.65;11.45;;;3.50;64.90;;;;;;5082469;28;20230;-62
2023/04/06 02:16:08;;;;;;;18.15;11.95;;;3.50;65.00;;;;;;5070024;28;20302;-63
2023/04/06 02:18:45;;;;;;;15.55;11.13;;;3.50;65.00;;;;;;5072728;28;20203;-63
2023/04/06 02:21:20;;;;;;;19.20;12.52;;;3.40;65.00;;;;;;5086059;28;20200;-63
2023/04/06 02:23:51;;;;;;;18.25;11.70;;;3.40;65.00;;;;;;5064820;28;20716;-63
2023/04/06 02:26:23;;;;;;;18.60;12.40;;;3.40;65.00;;;;;;5084910;28;20194;-63
2023/04/06 02:28:59;;;;;;;16.60;11.77;;;3.40;65.10;;;;;;5082611;28;20221;-63
2023/04/06 02:31:33;;;;;;;17.73;11.55;;;3.50;65.20;;;;;;5085709;28;20238;-63
2023/04/06 02:34:07;;;;;;;20.40;13.40;;;3.50;65.20;;;;;;5068866;28;20207;-63
2023/04/06 02:36:39;;;;;;;21.02;12.10;;;3.40;65.10;;;;;;5082750;28;20203;-63
2023/04/06 02:39:13;;;;;;;17.90;12.07;;;3.40;65.10;;;;;;5067973;28;20308;-62
2023/04/06 02:41:53;;;;;;;21.45;13.82;;;3.40;65.10;;;;;;5085742;28;20289;-63
2023/04/06 02:44:29;;;;;;;19.80;12.85;;;3.40;65.20;;;;;;5084228;28;20199;-62
2023/04/06 02:47:08;;;;;;;19.60;11.77;;;3.40;65.20;;;;;;5069626;28;20690;-62
2023/04/06 02:49:44;;;;;;;21.15;12.93;;;3.40;65.10;;;;;;5087246;28;20290;-62
2023/04/06 02:52:20;;;;;;;18.30;11.93;;;3.40;65.20;;;;;;5080654;28;20301;-62
2023/04/06 02:55:00;;;;;;;19.50;11.25;;;3.40;65.10;;;;;;5066019;28;20207;-63
2023/04/06 02:57:34;;;;;;;19.27;12.10;;;3.40;65.10;;;;;;5088266;28;20215;-63
2023/04/06 03:00:11;;;;;;;19.40;12.30;;;3.30;65.10;;;;;;5065258;28;20199;-63
2023/04/06 03:02:44;;;;;;;19.35;12.45;;;3.30;65.00;;;;;;5076579;28;20226;-63
2023/04/06 03:05:20;;;;;;;19.70;12.80;;;3.20;65.00;;;;;;5085114;28;20219;-63
2023/04/06 03:07:54;;;;;;;18.50;11.00;;;3.20;65.00;;;;;;5081321;28;20222;-63
2023/04/06 03:10:37;;;;;;;19.95;11.55;;;3.20;65.10;;;;;;5086642;28;20229;-63
2023/04/06 03:13:07;;;;;;;19.05;11.80;;;3.10;65.00;;;;;;5082223;28;20303;-63
2023/04/06 03:16:02;;;;;;;17.75;12.63;;;3.00;64.90;;;;;;5087897;28;20199;-63
2023/04/06 03:18:42;;;;;;;20.83;12.68;;;3.00;65.10;;;;;;5069417;28;20276;-62
2023/04/06 03:21:20;;;;;;;22.58;13.98;;;2.90;65.10;;;;;;5083778;28;20261;-62
2023/04/06 03:23:56;;;;;;;19.75;13.05;;;2.70;65.10;;;;;;5081857;28;20304;-63
2023/04/06 03:26:29;;;;;;;21.10;12.70;;;2.60;65.20;;;;;;5069425;28;20207;-62
2023/04/06 03:29:07;;;;;;;20.35;12.88;;;2.60;65.30;;;;;;5085328;28;21154;-62
2023/04/06 03:31:46;;;;;;;20.60;12.32;;;2.60;65.60;;;;;;5079666;28;20356;-63
2023/04/06 03:34:50;;;;;;;20.27;11.68;;;2.70;65.70;;;;;;5074941;28;20202;-62
2023/04/06 03:37:27;;;;;;;17.10;11.07;;;2.70;65.60;;;;;;5078413;28;20584;-63
2023/04/06 03:40:05;;;;;;;17.33;12.10;;;2.70;65.60;;;;;;5083327;28;20227;-63
2023/04/06 03:42:43;;;;;;;19.27;12.45;;;2.70;65.60;;;;;;5079810;28;20246;-62
2023/04/06 03:45:16;;;;;;;21.45;13.05;;;2.70;65.60;;;;;;5083646;28;20218;-63
2023/04/06 03:48:01;;;;;;;20.42;13.07;;;2.70;65.60;;;;;;5084814;28;20213;-63
2023/04/06 03:50:36;;;;;;;20.33;12.30;;;2.70;65.60;;;;;;5084025;28;20635;-63
2023/04/06 03:53:08;;;;;;;20.15;12.43;;;2.70;65.50;;;;;;5066343;28;20230;-63
2023/04/06 03:55:37;;;;;;;17.65;12.02;;;2.60;65.40;;;;;;5085135;28;20632;-63
2023/04/06 03:58:15;;;;;;;19.77;11.85;;;2.60;65.50;;;;;;5069318;28;20207;-62
2023/04/06 04:00:55;;;;;;;22.20;14.88;;;2.60;65.50;;;;;;5072411;28;20248;-63
2023/04/06 04:03:33;;;;;;;20.80;13.85;;;2.60;65.40;;;;;;5065955;28;20206;-62
2023/04/06 04:06:06;;;;;;;23.73;11.75;;;2.50;65.60;;;;;;5066699;28;20226;-64
2023/04/06 04:08:45;;;;;;;27.42;14.23;;;2.50;65.70;;;;;;5067380;28;20650;-63
2023/04/06 04:11:16;;;;;;;22.63;13.48;;;2.50;65.60;;;;;;5070288;28;20226;-63
2023/04/06 04:14:01;;;;;;;24.08;13.88;;;2.50;65.60;;;;;;5063711;28;20533;-64
2023/04/06 04:16:34;;;;;;;23.75;14.40;;;2.50;65.70;;;;;;5065931;28;20230;-64
2023/04/06 04:19:09;;;;;;;20.90;13.73;;;2.50;65.70;;;;;;5064621;28;20294;-63
2023/04/06 04:21:48;;;;;;;20.88;11.98;;;2.50;65.80;;;;;;5082104;28;20218;-63
2023/04/06 04:24:23;;;;;;;29.17;16.02;;;2.50;66.00;;;;;;5069612;28;20222;-63
2023/04/06 04:27:04;;;;;;;21.83;14.63;;;2.50;65.70;;;;;;5081974;28;20281;-63
2023/04/06 04:29:43;;;;;;;24.90;14.43;;;2.40;65.50;;;;;;5083413;28;20216;-63
2023/04/06 04:32:16;;;;;;;26.02;16.08;;;2.40;65.70;;;;;;5079116;28;20233;-63
2023/04/06 04:34:49;;;;;;;29.08;16.27;;;2.30;65.90;;;;;;5063422;28;20229;-63
2023/04/06 04:37:46;;;;;;;26.45;15.75;;;2.40;66.00;;;;;;5080599;28;20663;-63
2023/04/06 04:40:18;;;;;;;24.17;15.32;;;2.40;66.00;;;;;;5064568;28;20199;-63
2023/04/06 04:43:12;;;;;;;26.15;15.60;;;2.40;66.10;;;;;;5081154;28;20208;-63
2023/04/06 04:45:46;;;;;;;24.25;13.63;;;2.50;66.10;;;;;;5065665;28;20666;-62
2023/04/06 04:48:44;;;;;;;22.50;13.32;;;2.50;66.00;;;;;;5066292;28;20333;-63
2023/04/06 04:51:24;;;;;;;23.52;14.52;;;2.50;66.00;;;;;;5080818;28;20226;-63
2023/04/06 04:54:08;;;;;;;26.38;14.63;;;2.50;66.10;;;;;;5079948;28;20219;-63
2023/04/06 04:59:32;;;;;;;18.10;12.25;;;2.40;65.80;;;;;;5066645;28;20207;-62
2023/04/06 05:02:22;;;;;;;19.05;12.25;;;2.40;65.90;;;;;;5061922;28;20330;-62
2023/04/06 05:05:18;;;;;;;25.17;16.02;;;2.40;66.00;;;;;;5076380;28;20225;-63
2023/04/06 05:07:53;;;;;;;25.67;15.15;;;2.40;66.20;;;;;;5067211;28;20267;-63
2023/04/06 05:11:00;;;;;;;21.30;14.43;;;2.40;66.20;;;;;;5082899;28;20219;-63
2023/04/06 05:13:52;;;;;;;23.17;13.80;;;2.40;66.20;;;;;;5081119;28;20588;-63
2023/04/06 05:16:46;;;;;;;23.45;14.27;;;2.50;66.30;;;;;;5078199;28;20318;-63
2023/04/06 05:19:40;;;;;;;20.38;13.70;;;2.50;66.20;;;;;;5080911;28;20256;-63
2023/04/06 05:22:14;;;;;;;21.38;13.30;;;2.70;67.80;;;;;;5063099;28;20666;-63
2023/04/06 05:24:57;;;;;;;18.15;12.13;;;3.50;68.60;;;;;;5062567;28;20317;-63
2023/04/06 05:27:38;;;;;;;19.15;12.90;;;3.90;66.50;;;;;;5063076;28;20311;-63
2023/04/06 05:30:30;;;;;;;22.67;13.15;;;3.90;65.60;;;;;;5075991;28;20318;-62
2023/04/06 05:33:07;;;;;;;20.10;13.13;;;3.70;65.20;;;;;;5078289;28;20219;-63
2023/04/06 05:36:06;;;;;;;25.67;12.73;;;3.40;65.10;;;;;;5077264;28;20203;-63
2023/04/06 05:38:43;;;;;;;22.80;13.95;;;3.30;65.20;;;;;;5063535;28;20241;-62
2023/04/06 05:41:44;;;;;;;22.30;13.95;;;3.20;65.40;;;;;;5074267;28;20208;-63
2023/04/06 05:44:35;;;;;;;25.10;14.23;;;3.10;65.50;;;;;;5079222;28;20624;-63
2023/04/06 05:47:30;;;;;;;20.80;13.85;;;3.00;65.70;;;;;;5078673;28;20211;-63
2023/04/06 05:50:20;;;;;;;24.77;14.05;;;3.00;65.70;;;;;;5078291;28;20666;-62
2023/04/06 05:53:20;;;;;;;29.80;16.80;;;3.00;65.80;;;;;;5081204;28;20289;-63
2023/04/06 05:56:15;;;;;;;48.85;24.65;;;3.00;65.90;;;;;;5080346;28;20981;-63
2023/04/06 05:59:06;;;;;;;33.42;18.80;;;3.00;65.90;;;;;;5081919;28;20235;-62
2023/04/06 06:01:39;;;;;;;51.22;26.92;;;3.00;66.00;;;;;;5081459;28;20254;-63
2023/04/06 06:04:12;;;;;;;46.17;26.45;;;3.00;65.90;;;;;;5062429;28;20206;-62
2023/04/06 06:07:03;;;;;;;47.35;27.08;;;3.00;65.90;;;;;;5082742;28;20751;-63
2023/04/06 06:10:20;;;;;;;67.68;39.63;;;2.90;66.00;;;;;;5027161;28;20214;-63
2023/04/06 06:13:01;;;;;;;59.33;33.75;;;3.00;66.10;;;;;;5078467;28;20400;-62
2023/04/06 06:15:49;;;;;;;51.15;30.33;;;3.00;66.20;;;;;;5081828;28;20202;-62
2023/04/06 06:18:25;;;;;;;51.40;27.77;;;3.00;66.20;;;;;;5081795;28;20215;-62
2023/04/06 06:20:56;;;;;;;38.78;24.92;;;3.10;66.20;;;;;;5081719;28;20295;-63
2023/04/06 06:23:36;;;;;;;44.22;25.73;;;3.10;66.30;;;;;;5080700;28;20196;-63
2023/04/06 06:26:07;;;;;;;50.00;25.83;;;3.10;66.30;;;;;;5065070;28;20270;-63
2023/04/06 06:28:45;;;;;;;39.30;20.98;;;3.20;66.40;;;;;;5082961;28;20192;-63
2023/04/06 06:31:20;;;;;;;27.80;17.52;;;3.20;66.50;;;;;;5082189;28;20300;-63
2023/04/06 06:33:59;;;;;;;29.15;16.85;;;3.20;66.60;;;;;;5080286;28;20635;-63
2023/04/06 06:36:36;;;;;;;26.23;16.45;;;3.30;66.60;;;;;;5068335;28;20207;-63
2023/04/06 06:39:14;;;;;;;26.05;16.80;;;3.30;66.70;;;;;;5066430;28;20213;-63
2023/04/06 06:41:48;;;;;;;26.17;15.75;;;3.40;66.80;;;;;;5071807;28;20214;-63
2023/04/06 06:47:16;;;;;;;26.50;15.80;;;3.50;66.90;;;;;;5071253;28;20306;-63
2023/04/06 06:49:45;;;;;;;22.58;14.90;;;3.50;67.00;;;;;;5082272;28;20221;-63
2023/04/06 06:52:31;;;;;;;24.33;16.15;;;3.60;67.00;;;;;;5064986;28;20257;-63
2023/04/06 06:55:11;;;;;;;25.45;15.85;;;3.60;67.10;;;;;;5068661;28;20206;-63
2023/04/06 06:57:51;;;;;;;22.58;15.50;;;3.70;67.10;;;;;;5071772;28;20206;-63
2023/04/06 07:00:34;;;;;;;23.08;14.75;;;3.70;67.30;;;;;;5081502;28;20214;-63
2023/04/06 07:03:23;;;;;;;23.92;15.50;;;3.80;67.20;;;;;;5081901;28;20204;-63
2023/04/06 07:05:58;;;;;;;25.77;14.60;;;3.80;67.20;;;;;;5080213;28;20286;-63
2023/04/06 07:08:29;;;;;;;20.95;14.40;;;3.80;67.30;;;;;;5070946;28;20884;-63
2023/04/06 07:11:02;;;;;;;22.25;13.88;;;3.90;67.30;;;;;;5066208;28;20211;-62
2023/04/06 07:13:50;;;;;;;23.23;14.35;;;4.00;67.40;;;;;;5080855;28;20238;-63
2023/04/06 07:16:23;;;;;;;24.02;15.25;;;4.00;67.40;;;;;;5073892;28;20214;-63
2023/04/06 07:19:05;;;;;;;23.95;14.27;;;4.00;67.50;;;;;;5060810;28;20317;-63
2023/04/06 07:21:40;;;;;;;20.90;14.38;;;4.10;67.60;;;;;;5080652;28;20309;-62
2023/04/06 07:24:14;;;;;;;22.65;14.07;;;4.10;67.60;;;;;;5068055;28;20596;-62
2023/04/06 07:26:46;;;;;;;21.52;15.00;;;4.10;67.60;;;;;;5065851;28;20236;-63
2023/04/06 07:29:22;;;;;;;21.65;15.15;;;4.20;67.60;;;;;;5081084;28;20198;-62
2023/04/06 07:32:03;;;;;;;28.08;16.65;;;4.20;67.60;;;;;;5071530;28;20247;-62
2023/04/06 07:34:55;;;;;;;23.17;14.50;;;4.20;67.70;;;;;;5080895;28;20242;-63
2023/04/06 07:37:28;;;;;;;21.00;15.10;;;4.30;67.80;;;;;;5065070;28;20319;-63
2023/04/06 07:40:00;;;;;;;21.98;15.43;;;4.40;67.80;;;;;;5063070;28;20645;-62
2023/04/06 07:42:35;;;;;;;26.08;14.65;;;4.40;67.70;;;;;;5067290;28;20426;-62
2023/04/06 07:45:21;;;;;;;22.70;15.23;;;4.50;67.80;;;;;;5069469;28;20204;-62
2023/04/06 07:47:55;;;;;;;23.20;15.93;;;4.60;67.80;;;;;;5064716;28;20198;-62
2023/04/06 07:50:42;;;;;;;21.40;15.38;;;4.70;67.70;;;;;;5079332;28;20441;-62
2023/04/06 07:53:13;;;;;;;24.52;15.98;;;4.80;67.80;;;;;;5063200;28;20231;-63
2023/04/06 07:55:48;;;;;;;23.10;15.95;;;4.80;67.80;;;;;;5083283;28;20212;-62
2023/04/06 07:58:25;;;;;;;23.52;15.70;;;4.90;67.70;;;;;;5080636;28;20636;-63
2023/04/06 08:00:57;;;;;;;21.02;15.15;;;4.90;67.60;;;;;;5064164;28;20237;-62
2023/04/06 08:03:28;;;;;;;23.63;16.85;;;5.00;67.70;;;;;;5079116;28;20212;-62
2023/04/06 08:06:08;;;;;;;25.25;15.55;;;5.00;67.60;;;;;;5078103;28;20242;-62
2023/04/06 08:08:41;;;;;;;22.95;15.20;;;5.10;67.60;;;;;;5081806;28;20289;-63
2023/04/06 08:11:15;;;;;;;22.02;14.60;;;5.10;67.80;;;;;;5077433;28;20244;-62
2023/04/06 08:13:45;;;;;;;29.38;17.85;;;5.20;67.80;;;;;;5081922;28;20213;-62
2023/04/06 08:16:30;;;;;;;27.02;16.70;;;5.30;67.70;;;;;;5079499;28;20198;-62
2023/04/06 08:19:04;;;;;;;27.42;17.30;;;5.40;67.70;;;;;;5075863;28;20242;-63
2023/04/06 08:21:35;;;;;;;33.03;17.83;;;5.50;67.70;;;;;;5078967;28;20218;-63
2023/04/06 08:24:12;;;;;;;24.27;16.25;;;5.60;67.70;;;;;;5083792;28;20282;-62
2023/04/06 08:26:58;;;;;;;21.83;15.93;;;5.70;67.70;;;;;;5083399;28;20205;-62
2023/04/06 08:29:42;;;;;;;23.35;15.60;;;5.80;67.70;;;;;;5079080;28;20211;-62
2023/04/06 08:32:13;;;;;;;25.75;16.02;;;5.80;67.70;;;;;;5061008;28;20257;-62
2023/04/06 08:34:45;;;;;;;27.83;17.10;;;6.00;67.60;;;;;;5076954;28;20268;-63
2023/04/06 08:37:19;;;;;;;22.55;15.77;;;6.00;67.60;;;;;;5064355;28;20249;-62
2023/04/06 08:39:50;;;;;;;28.00;16.50;;;6.10;67.50;;;;;;5084425;28;20267;-62
2023/04/06 08:42:23;;;;;;;26.98;17.85;;;6.20;67.60;;;;;;5062820;28;20663;-62
2023/04/06 08:44:54;;;;;;;23.55;16.38;;;6.30;67.50;;;;;;5077916;28;20211;-62
2023/04/06 08:47:37;;;;;;;22.35;15.18;;;6.40;67.50;;;;;;5057398;28;20290;-62
2023/04/06 08:50:11;;;;;;;24.15;16.30;;;6.50;67.50;;;;;;5074675;28;20542;-62
2023/04/06 08:52:50;;;;;;;21.27;14.60;;;6.60;67.30;;;;;;5079245;28;20209;-63
2023/04/06 08:55:24;;;;;;;19.67;14.02;;;6.70;67.20;;;;;;5081127;28;20687;-62
2023/04/06 08:57:58;;;;;;;22.77;15.30;;;6.80;67.10;;;;;;5078442;28;20214;-62
2023/04/06 09:00:38;;;;;;;22.75;13.85;;;6.80;67.10;;;;;;5077287;28;20302;-63
2023/04/06 09:03:14;;;;;;;18.90;13.95;;;6.90;67.10;;;;;;5076666;28;20210;-63
2023/04/06 09:05:48;;;;;;;21.95;15.13;;;7.00;67.00;;;;;;5080923;28;20304;-63
2023/04/06 09:08:28;;;;;;;21.42;14.10;;;7.10;66.60;;;;;;5077094;28;20213;-63
2023/04/06 09:10:59;;;;;;;20.38;13.88;;;7.20;66.50;;;;;;5078664;28;20209;-63
2023/04/06 09:13:47;;;;;;;36.67;19.35;;;7.30;66.40;;;;;;5079455;28;20902;-62
2023/04/06 09:16:21;;;;;;;64.78;32.90;;;7.40;66.20;;;;;;5077595;28;20215;-63
2023/04/06 09:19:02;;;;;;;37.00;19.43;;;7.50;65.90;;;;;;5075542;28;20206;-62
2023/04/06 09:21:36;;;;;;;65.95;38.13;;;7.60;65.50;;;;;;5076268;28;21238;-62
2023/04/06 09:24:10;;;;;;;35.97;21.48;;;7.70;65.40;;;;;;5078266;28;20197;-62
2023/04/06 09:26:50;;;;;;;40.63;24.00;;;7.80;65.20;;;;;;5084207;28;20565;-62
2023/04/06 09:29:25;;;;;;;30.97;18.67;;;8.00;65.10;;;;;;5080175;28;20929;-62
2023/04/06 09:32:04;;;;;;;23.43;14.47;;;8.10;64.90;;;;;;5077592;28;20509;-62
2023/04/06 09:34:35;;;;;;;21.80;13.70;;;8.10;64.70;;;;;;5064848;28;20483;-62
2023/04/06 09:37:16;;;;;;;20.60;13.97;;;8.10;64.50;;;;;;5077345;28;20517;-62
2023/04/06 09:40:05;;;;;;;22.23;13.80;;;8.30;64.20;;;;;;5052789;28;20453;-62
2023/04/06 09:42:37;;;;;;;25.90;17.30;;;8.40;64.00;;;;;;5078275;28;20461;-62
2023/04/06 09:45:08;;;;;;;22.03;14.83;;;8.50;63.90;;;;;;5082311;28;20908;-62
2023/04/06 09:47:40;;;;;;;19.33;12.10;;;8.50;63.70;;;;;;5067761;28;20461;-62
2023/04/06 09:50:16;;;;;;;17.27;12.00;;;8.60;63.60;;;;;;5080157;28;20454;-62
2023/04/06 09:52:54;;;;;;;16.33;11.80;;;8.50;63.40;;;;;;5078039;28;20464;-62
2023/04/06 09:55:38;;;;;;;16.67;10.50;;;8.60;63.30;;;;;;5079591;28;20583;-64
2023/04/06 09:58:26;;;;;;;17.63;10.77;;;8.70;62.70;;;;;;5080256;28;20459;-63
2023/04/06 10:01:06;;;;;;;21.33;12.30;;;8.80;62.40;;;;;;5079987;28;20475;-62
2023/04/06 10:03:41;;;;;;;18.27;10.63;;;8.80;61.70;;;;;;5080563;28;21105;-62
2023/04/06 10:06:25;;;;;;;17.80;10.27;;;8.80;61.70;;;;;;5079673;28;20462;-62
2023/04/06 10:09:07;;;;;;;18.73;9.47;;;8.90;61.90;;;;;;5078871;28;20850;-62
2023/04/06 10:11:41;;;;;;;14.73;9.70;;;9.00;61.60;;;;;;5078211;28;20456;-62
2023/04/06 10:14:22;;;;;;;14.53;10.50;;;9.00;61.30;;;;;;5061220;28;20530;-62
2023/04/06 10:16:54;;;;;;;24.47;13.90;;;9.10;61.20;;;;;;5081045;28;20893;-62
2023/04/06 10:20:08;;;;;;;19.00;10.80;;;9.10;60.80;;;;;;5068885;28;20452;-62
2023/04/06 10:22:52;;;;;;;16.57;9.97;;;9.10;60.70;;;;;;5076496;28;20559;-62
2023/04/06 10:25:32;;;;;;;15.10;9.50;;;9.10;60.40;;;;;;5078752;28;20457;-62
2023/04/06 10:28:17;;;;;;;15.07;9.90;;;9.20;60.50;;;;;;5079226;28;20495;-62
2023/04/06 10:30:50;;;;;;;15.60;10.03;;;9.20;60.20;;;;;;5081795;28;20491;-62
2023/04/06 10:33:25;;;;;;;18.60;11.10;;;9.20;60.10;;;;;;5082571;28;20449;-64
2023/04/06 10:38:42;;;;;;;16.47;10.20;;;9.30;60.10;;;;;;5062469;28;21477;-64
2023/04/06 10:41:14;;;;;;;15.93;9.50;;;9.40;60.10;;;;;;5082527;28;20465;-63
2023/04/06 10:44:08;;;;;;;19.40;10.80;;;9.40;59.80;;;;;;5082663;28;21012;-62
2023/04/06 10:46:40;;;;;;;18.60;10.97;;;9.50;59.60;;;;;;5077814;28;20456;-62
2023/04/06 10:49:15;;;;;;;17.87;10.97;;;9.50;59.80;;;;;;5084649;28;20924;-63
2023/04/06 10:51:54;;;;;;;17.20;11.33;;;9.60;59.60;;;;;;5081539;28;20464;-63
2023/04/06 10:54:31;;;;;;;20.47;11.33;;;9.60;59.30;;;;;;5079669;28;20478;-62
2023/04/06 10:57:09;;;;;;;18.30;11.50;;;9.70;58.90;;;;;;5081816;28;20794;-63
2023/04/06 10:59:47;;;;;;;21.90;11.77;;;9.70;58.90;;;;;;5085327;28;20453;-63
2023/04/06 11:02:22;;;;;;;21.10;11.93;;;9.80;58.70;;;;;;5084334;28;20480;-63
2023/04/06 11:04:58;;;;;;;18.50;12.30;;;9.80;58.70;;;;;;5088344;28;20449;-63
2023/04/06 11:07:40;;;;;;;22.37;12.30;;;9.90;58.80;;;;;;5079167;28;20809;-63
2023/04/06 11:10:12;;;;;;;18.40;11.90;;;9.90;58.80;;;;;;5078969;28;20469;-63
2023/04/06 11:12:52;;;;;;;18.27;11.70;;;10.00;58.80;;;;;;5080219;28;20460;-63
2023/04/06 11:15:35;;;;;;;16.63;11.13;;;10.00;58.60;;;;;;5083379;28;20560;-63
2023/04/06 11:18:11;;;;;;;17.90;11.33;;;10.10;58.00;;;;;;5089613;28;20468;-63
2023/04/06 11:20:50;;;;;;;18.80;11.53;;;10.10;58.10;;;;;;5063690;28;20456;-63
2023/04/06 11:23:33;;;;;;;20.67;12.80;;;10.10;58.00;;;;;;5060162;28;20938;-63
2023/04/06 11:26:13;;;;;;;20.10;12.43;;;10.00;58.00;;;;;;5081147;28;20449;-63
2023/04/06 11:28:46;;;;;;;17.60;11.97;;;10.00;58.00;;;;;;5083149;28;20552;-63
2023/04/06 11:31:23;;;;;;;18.97;12.20;;;10.00;58.10;;;;;;5081055;28;21007;-63
2023/04/06 11:33:58;;;;;;;18.77;12.00;;;10.00;58.00;;;;;;5086166;28;20783;-63
2023/04/06 11:36:37;;;;;;;17.37;11.10;;;10.10;58.00;;;;;;5082565;28;20486;-63
2023/04/06 11:39:17;;;;;;;19.23;12.80;;;10.10;58.10;;;;;;5082139;28;20458;-63
2023/04/06 11:41:49;;;;;;;22.27;12.80;;;10.10;58.10;;;;;;5079011;28;20450;-63
2023/04/06 11:44:39;;;;;;;17.00;11.60;;;10.20;57.60;;;;;;5080722;28;20468;-63
2023/04/06 11:47:20;;;;;;;19.50;11.80;;;10.30;57.30;;;;;;5083082;28;20465;-63
2023/04/06 11:49:53;;;;;;;15.47;10.80;;;10.40;57.20;;;;;;5084361;28;20504;-63
2023/04/06 11:52:26;;;;;;;20.23;12.43;;;10.50;57.10;;;;;;5076074;28;20543;-63
2023/04/06 11:57:41;;;;;;;17.17;10.87;;;10.60;56.70;;;;;;5085781;28;20462;-63
2023/04/06 12:00:17;;;;;;;13.70;9.40;;;10.60;56.50;;;;;;5082592;28;21017;-63
2023/04/06 12:02:55;;;;;;;18.93;11.57;;;10.60;56.20;;;;;;5085099;28;20929;-63
2023/04/06 12:05:36;;;;;;;15.70;10.97;;;10.70;55.90;;;;;;5065588;28;20486;-62
2023/04/06 12:08:12;;;;;;;17.20;10.87;;;10.60;56.20;;;;;;5078127;28;20469;-63
2023/04/06 12:10:52;;;;;;;16.07;11.03;;;10.60;56.30;;;;;;5077844;28;20454;-63
2023/04/06 12:13:23;;;;;;;19.20;11.13;;;10.70;56.30;;;;;;5077987;28;20453;-63
2023/04/06 12:16:02;;;;;;;15.10;10.83;;;10.70;56.40;;;;;;5081607;28;20469;-63
2023/04/06 12:18:41;;;;;;;18.07;10.27;;;10.80;56.40;;;;;;5083627;28;20467;-63
2023/04/06 12:21:11;;;;;;;18.00;10.77;;;10.90;56.50;;;;;;5079812;28;20530;-63
2023/04/06 12:23:49;;;;;;;17.27;10.40;;;11.00;56.40;;;;;;5080425;28;20469;-63
2023/04/06 12:26:22;;;;;;;15.67;11.47;;;11.00;56.20;;;;;;5080848;28;20805;-63
2023/04/06 12:28:54;;;;;;;16.37;10.60;;;11.10;56.30;;;;;;5080630;28;20509;-63
2023/04/06 12:31:29;;;;;;;15.57;10.00;;;11.10;56.20;;;;;;5080779;28;20894;-64
2023/04/06 12:34:07;;;;;;;22.33;11.80;;;11.20;55.60;;;;;;5083255;28;20900;-63
2023/04/06 12:36:41;;;;;;;15.47;10.33;;;11.20;54.80;;;;;;5061445;28;21024;-63
2023/04/06 12:39:13;;;;;;;16.67;11.03;;;11.30;54.90;;;;;;5080440;28;20517;-63
2023/04/06 12:41:53;;;;;;;13.60;10.17;;;11.30;54.80;;;;;;5076893;28;20473;-63
2023/04/06 12:44:32;;;;;;;14.77;9.47;;;11.40;54.60;;;;;;5079552;28;20455;-63
2023/04/06 12:47:07;;;;;;;16.20;10.00;;;11.30;54.80;;;;;;5081170;28;20672;-63
2023/04/06 12:49:44;;;;;;;14.73;9.77;;;11.40;54.70;;;;;;5085127;28;20959;-63
2023/04/06 12:52:17;;;;;;;17.23;10.63;;;11.40;54.80;;;;;;5077609;28;20463;-63
2023/04/06 12:54:48;;;;;;;14.10;9.80;;;11.50;54.50;;;;;;5076771;28;20797;-65
2023/04/06 12:57:26;;;;;;;15.90;10.90;;;11.50;54.50;;;;;;5076680;28;20514;-63
2023/04/06 12:59:57;;;;;;;15.73;9.60;;;11.60;54.30;;;;;;5079002;28;20470;-63
2023/04/06 13:02:46;;;;;;;17.70;10.73;;;11.70;53.80;;;;;;5061240;28;20479;-63
2023/04/06 13:05:25;;;;;;;14.47;9.43;;;11.70;53.80;;;;;;5079006;28;20456;-63
2023/04/06 13:08:05;;;;;;;20.23;10.77;;;11.80;53.90;;;;;;5074808;28;20524;-63
2023/04/06 13:10:39;;;;;;;15.93;10.33;;;11.80;53.90;;;;;;5064237;28;20494;-63
2023/04/06 13:13:32;;;;;;;14.60;10.23;;;11.80;53.90;;;;;;5073522;28;20464;-63
2023/04/06 13:16:05;;;;;;;16.17;10.47;;;11.80;54.20;;;;;;5082107;28;20519;-63
2023/04/06 13:18:43;;;;;;;15.97;11.07;;;11.70;54.00;;;;;;5083016;28;20500;-63
2023/04/06 13:21:20;;;;;;;15.00;9.73;;;11.80;53.90;;;;;;5079235;28;20466;-63
2023/04/06 13:23:53;;;;;;;18.93;9.93;;;11.80;53.40;;;;;;5077875;28;20463;-63
2023/04/06 13:26:30;;;;;;;16.37;10.20;;;11.70;53.20;;;;;;5075345;28;20588;-64
2023/04/06 13:29:10;;;;;;;15.73;9.87;;;11.60;53.30;;;;;;5078652;28;20458;-63
2023/04/06 13:31:50;;;;;;;14.73;10.10;;;11.60;53.20;;;;;;5065556;28;20485;-63
2023/04/06 13:34:23;;;;;;;15.33;10.13;;;11.60;53.20;;;;;;5081001;28;20658;-63
2023/04/06 13:37:06;;;;;;;14.93;10.60;;;11.50;53.10;;;;;;5078988;28;20485;-63
2023/04/06 13:39:36;;;;;;;15.67;10.40;;;11.60;53.10;;;;;;5078426;28;20484;-63
2023/04/06 13:42:14;;;;;;;20.53;10.40;;;11.60;53.20;;;;;;5075446;28;20935;-63
2023/04/06 13:44:51;;;;;;;16.23;10.30;;;11.60;53.20;;;;;;5077224;28;21167;-63
2023/04/06 13:47:29;;;;;;;16.43;10.27;;;11.60;53.10;;;;;;5078262;28;20476;-63
2023/04/06 13:50:04;;;;;;;14.20;10.03;;;11.70;53.00;;;;;;5079967;28;20482;-63
2023/04/06 13:52:49;;;;;;;15.23;10.50;;;11.70;52.90;;;;;;5062320;28;20987;-63